Aérodrome :







RETROUVEZ-NOUS SUR...

 
LOGIN :

S'inscrire | Disclaimer

   EN    FR    IT 

 









Légende :    VFR   VFR Marginal   IFR   IFR Intensif   IFR Très Intensif
Visi : 
Plafond : 
>= 8 km
>= 3000ft
5 à 8 km
1000 à 3000 ft
1500m à 5 km
500 à 1000 ft
800 à 1500m
200 à 500 ft
< 800m
< 200 ft
Symboles :   Orages  Brouillard  Fortes neiges  Fortes précipitations  Vent > 20 kt






- Altitude de l'aérodrome : 732 ft


KMVL - Morrisville Stowe State

DERNIER METAR :
  • 281154Z AUTO 35006KT 6SM -SN BR FEW020 SCT032 OVC043 M02/M03 A2972 RMK AO2 SLP073 P0001 60002 70003 T10171033 11006 21017 53009

METARs EXPIRÉS :
  • 281139Z AUTO 35006KT 7SM -SN FEW011 SCT022 OVC036 M01/M03 A2972 RMK AO2 P0001 T10111033
  • 281110Z AUTO 34006KT 3SM -SN BR FEW010 BKN018 OVC028 M02/M03 A2971 RMK AO2 P0001 T10171033
  • 281102Z AUTO 34005KT 2 1/2SM -SN BR FEW011 BKN015 OVC029 M01/M03 A2971 RMK AO2 P0001 T10111028
  • 281054Z AUTO 35007KT 3SM -SN BR FEW015 BKN020 OVC029 M01/M03 A2971 RMK AO2 SLP069 P0000 T10111033
  • 281025Z AUTO 36007KT 7SM -SN FEW013 BKN020 OVC034 M01/M03 A2970 RMK AO2 P0000 T10111033
  • 281014Z AUTO 36007KT 2 1/2SM -SN BR SCT016 BKN024 OVC048 M01/M03 A2970 RMK AO2 P0000 T10111033
  • 281006Z AUTO 35007KT 7SM -SN FEW013 BKN032 OVC048 M01/M03 A2970 RMK AO2 P0000 T10111033

TAF N/A



MET'MAP, la Météo Aéronautique d'un coup d'oeil ! - Copyright ORBIFLY Décembre 2007 - Disclaimer

ORBIFLY MET'MAP TEAM :

Programmation & Développement : Alexandra Zaïnal
Sur une idée originale de : Baudouin d'Aumeries
Assistance à la programmation : Marc-Olivier Méhu
Soutien technique & logistique : Manuel Goepfert

Contact : metmap@orbifly.com




SOURCES & CREDITS :

   NOAA